sensor_id;sensor_type;location;lat;lon;timestamp;P1;durP1;ratioP1;P2;durP2;ratioP2
10335;SDS011;5213;53.548;9.930;2023-08-24T00:00:40;14.88;;;7.40;;
10335;SDS011;5213;53.548;9.930;2023-08-24T00:03:07;9.27;;;7.00;;
10335;SDS011;5213;53.548;9.930;2023-08-24T00:05:34;10.82;;;6.70;;
10335;SDS011;5213;53.548;9.930;2023-08-24T00:08:06;8.18;;;6.60;;
10335;SDS011;5213;53.548;9.930;2023-08-24T00:10:33;11.65;;;6.95;;
10335;SDS011;5213;53.548;9.930;2023-08-24T00:12:59;10.27;;;6.93;;
10335;SDS011;5213;53.548;9.930;2023-08-24T00:15:25;10.55;;;7.05;;
10335;SDS011;5213;53.548;9.930;2023-08-24T00:17:51;7.22;;;6.53;;
10335;SDS011;5213;53.548;9.930;2023-08-24T00:20:18;9.45;;;7.05;;
10335;SDS011;5213;53.548;9.930;2023-08-24T00:22:45;9.57;;;7.38;;
10335;SDS011;5213;53.548;9.930;2023-08-24T00:25:11;10.40;;;7.47;;
10335;SDS011;5213;53.548;9.930;2023-08-24T00:27:37;10.82;;;7.70;;
10335;SDS011;5213;53.548;9.930;2023-08-24T00:30:04;11.32;;;8.23;;
10335;SDS011;5213;53.548;9.930;2023-08-24T00:32:34;13.35;;;8.73;;
10335;SDS011;5213;53.548;9.930;2023-08-24T00:35:03;9.10;;;7.63;;
10335;SDS011;5213;53.548;9.930;2023-08-24T00:37:31;12.07;;;7.55;;
10335;SDS011;5213;53.548;9.930;2023-08-24T00:39:59;9.85;;;8.43;;
10335;SDS011;5213;53.548;9.930;2023-08-24T00:42:25;13.98;;;8.35;;
10335;SDS011;5213;53.548;9.930;2023-08-24T00:44:51;10.93;;;7.85;;
10335;SDS011;5213;53.548;9.930;2023-08-24T00:47:17;10.88;;;8.30;;
10335;SDS011;5213;53.548;9.930;2023-08-24T00:49:43;13.98;;;8.38;;
10335;SDS011;5213;53.548;9.930;2023-08-24T00:52:09;12.68;;;8.50;;
10335;SDS011;5213;53.548;9.930;2023-08-24T00:54:36;11.68;;;8.30;;
10335;SDS011;5213;53.548;9.930;2023-08-24T00:57:02;11.73;;;8.40;;
10335;SDS011;5213;53.548;9.930;2023-08-24T00:59:28;14.23;;;9.25;;
10335;SDS011;5213;53.548;9.930;2023-08-24T01:01:54;13.10;;;8.70;;
10335;SDS011;5213;53.548;9.930;2023-08-24T01:04:22;10.52;;;8.32;;
10335;SDS011;5213;53.548;9.930;2023-08-24T01:06:48;12.18;;;8.93;;
10335;SDS011;5213;53.548;9.930;2023-08-24T01:09:14;15.55;;;8.95;;
10335;SDS011;5213;53.548;9.930;2023-08-24T01:11:58;13.60;;;9.70;;
10335;SDS011;5213;53.548;9.930;2023-08-24T01:14:40;13.10;;;8.32;;
10335;SDS011;5213;53.548;9.930;2023-08-24T01:17:09;14.35;;;9.43;;
10335;SDS011;5213;53.548;9.930;2023-08-24T01:22:05;12.55;;;8.98;;
10335;SDS011;5213;53.548;9.930;2023-08-24T01:24:38;17.70;;;9.70;;
10335;SDS011;5213;53.548;9.930;2023-08-24T01:27:05;17.48;;;10.07;;
10335;SDS011;5213;53.548;9.930;2023-08-24T01:29:31;14.15;;;9.43;;
10335;SDS011;5213;53.548;9.930;2023-08-24T01:31:57;14.77;;;9.73;;
10335;SDS011;5213;53.548;9.930;2023-08-24T01:34:23;15.13;;;9.55;;
10335;SDS011;5213;53.548;9.930;2023-08-24T01:36:49;14.98;;;8.93;;
10335;SDS011;5213;53.548;9.930;2023-08-24T01:39:29;11.48;;;8.73;;
10335;SDS011;5213;53.548;9.930;2023-08-24T01:41:56;13.68;;;8.45;;
10335;SDS011;5213;53.548;9.930;2023-08-24T01:44:26;10.48;;;7.97;;
10335;SDS011;5213;53.548;9.930;2023-08-24T01:46:52;13.35;;;8.40;;
10335;SDS011;5213;53.548;9.930;2023-08-24T01:49:19;12.70;;;7.88;;
10335;SDS011;5213;53.548;9.930;2023-08-24T01:51:46;12.18;;;7.75;;
10335;SDS011;5213;53.548;9.930;2023-08-24T01:54:12;10.25;;;7.97;;
10335;SDS011;5213;53.548;9.930;2023-08-24T01:56:39;12.35;;;7.53;;
10335;SDS011;5213;53.548;9.930;2023-08-24T01:59:05;10.65;;;7.78;;
10335;SDS011;5213;53.548;9.930;2023-08-24T02:01:31;12.23;;;8.18;;
10335;SDS011;5213;53.548;9.930;2023-08-24T02:03:57;14.57;;;7.80;;
10335;SDS011;5213;53.548;9.930;2023-08-24T02:06:24;8.73;;;7.70;;
10335;SDS011;5213;53.548;9.930;2023-08-24T02:08:51;8.50;;;7.25;;
10335;SDS011;5213;53.548;9.930;2023-08-24T02:11:17;13.05;;;8.32;;
10335;SDS011;5213;53.548;9.930;2023-08-24T02:13:43;14.27;;;8.70;;
10335;SDS011;5213;53.548;9.930;2023-08-24T02:16:09;11.70;;;7.80;;
10335;SDS011;5213;53.548;9.930;2023-08-24T02:18:35;14.35;;;7.97;;
10335;SDS011;5213;53.548;9.930;2023-08-24T02:21:06;11.32;;;8.25;;
10335;SDS011;5213;53.548;9.930;2023-08-24T02:23:32;10.75;;;7.80;;
10335;SDS011;5213;53.548;9.930;2023-08-24T02:25:58;10.55;;;8.52;;
10335;SDS011;5213;53.548;9.930;2023-08-24T02:28:24;10.52;;;8.38;;
10335;SDS011;5213;53.548;9.930;2023-08-24T02:30:50;13.73;;;8.25;;
10335;SDS011;5213;53.548;9.930;2023-08-24T02:33:16;11.10;;;9.18;;
10335;SDS011;5213;53.548;9.930;2023-08-24T02:35:42;11.10;;;7.78;;
10335;SDS011;5213;53.548;9.930;2023-08-24T02:38:09;11.45;;;8.15;;
10335;SDS011;5213;53.548;9.930;2023-08-24T02:40:35;11.63;;;8.60;;
10335;SDS011;5213;53.548;9.930;2023-08-24T02:43:01;11.57;;;8.35;;
10335;SDS011;5213;53.548;9.930;2023-08-24T02:45:27;11.85;;;7.93;;
10335;SDS011;5213;53.548;9.930;2023-08-24T02:47:53;10.98;;;7.95;;
10335;SDS011;5213;53.548;9.930;2023-08-24T02:50:19;9.57;;;8.07;;
10335;SDS011;5213;53.548;9.930;2023-08-24T02:52:45;11.45;;;7.70;;
10335;SDS011;5213;53.548;9.930;2023-08-24T02:55:11;11.43;;;7.88;;
10335;SDS011;5213;53.548;9.930;2023-08-24T02:57:37;10.27;;;8.38;;
10335;SDS011;5213;53.548;9.930;2023-08-24T03:00:04;11.80;;;8.15;;
10335;SDS011;5213;53.548;9.930;2023-08-24T03:02:31;12.77;;;8.45;;
10335;SDS011;5213;53.548;9.930;2023-08-24T03:04:57;9.82;;;8.02;;
10335;SDS011;5213;53.548;9.930;2023-08-24T03:07:23;10.45;;;8.10;;
10335;SDS011;5213;53.548;9.930;2023-08-24T03:09:49;11.75;;;8.65;;
10335;SDS011;5213;53.548;9.930;2023-08-24T03:12:15;13.05;;;8.55;;
10335;SDS011;5213;53.548;9.930;2023-08-24T03:14:41;12.38;;;8.02;;
10335;SDS011;5213;53.548;9.930;2023-08-24T03:17:07;14.57;;;8.82;;
10335;SDS011;5213;53.548;9.930;2023-08-24T03:19:33;11.05;;;8.77;;
10335;SDS011;5213;53.548;9.930;2023-08-24T03:21:59;11.73;;;9.05;;
10335;SDS011;5213;53.548;9.930;2023-08-24T03:24:25;10.00;;;8.80;;
10335;SDS011;5213;53.548;9.930;2023-08-24T03:26:51;12.35;;;9.25;;
10335;SDS011;5213;53.548;9.930;2023-08-24T03:29:17;12.52;;;8.65;;
10335;SDS011;5213;53.548;9.930;2023-08-24T03:31:43;11.45;;;9.20;;
10335;SDS011;5213;53.548;9.930;2023-08-24T03:34:09;12.93;;;10.05;;
10335;SDS011;5213;53.548;9.930;2023-08-24T03:36:34;13.77;;;9.90;;
10335;SDS011;5213;53.548;9.930;2023-08-24T03:39:00;12.68;;;9.50;;
10335;SDS011;5213;53.548;9.930;2023-08-24T03:41:25;10.98;;;8.55;;
10335;SDS011;5213;53.548;9.930;2023-08-24T03:43:51;14.90;;;10.07;;
10335;SDS011;5213;53.548;9.930;2023-08-24T03:46:16;9.95;;;8.95;;
10335;SDS011;5213;53.548;9.930;2023-08-24T03:48:42;15.13;;;9.80;;
10335;SDS011;5213;53.548;9.930;2023-08-24T03:51:08;10.32;;;8.85;;
10335;SDS011;5213;53.548;9.930;2023-08-24T03:53:33;10.90;;;9.65;;
10335;SDS011;5213;53.548;9.930;2023-08-24T03:55:59;13.60;;;9.38;;
10335;SDS011;5213;53.548;9.930;2023-08-24T03:58:24;13.48;;;9.75;;
10335;SDS011;5213;53.548;9.930;2023-08-24T04:00:50;10.75;;;9.63;;
10335;SDS011;5213;53.548;9.930;2023-08-24T04:03:16;11.68;;;9.68;;
10335;SDS011;5213;53.548;9.930;2023-08-24T04:05:41;10.68;;;9.20;;
10335;SDS011;5213;53.548;9.930;2023-08-24T04:08:07;11.23;;;9.48;;
10335;SDS011;5213;53.548;9.930;2023-08-24T04:10:33;12.95;;;9.93;;
10335;SDS011;5213;53.548;9.930;2023-08-24T04:12:58;15.48;;;10.02;;
10335;SDS011;5213;53.548;9.930;2023-08-24T04:15:24;16.15;;;10.75;;
10335;SDS011;5213;53.548;9.930;2023-08-24T04:17:50;14.82;;;11.00;;
10335;SDS011;5213;53.548;9.930;2023-08-24T04:20:15;13.68;;;10.35;;
10335;SDS011;5213;53.548;9.930;2023-08-24T04:22:41;17.17;;;11.18;;
10335;SDS011;5213;53.548;9.930;2023-08-24T04:25:08;12.98;;;10.30;;
10335;SDS011;5213;53.548;9.930;2023-08-24T04:27:34;13.82;;;10.60;;
10335;SDS011;5213;53.548;9.930;2023-08-24T04:29:59;11.48;;;9.80;;
10335;SDS011;5213;53.548;9.930;2023-08-24T04:32:26;13.93;;;10.52;;
10335;SDS011;5213;53.548;9.930;2023-08-24T04:34:52;15.60;;;10.20;;
10335;SDS011;5213;53.548;9.930;2023-08-24T04:37:18;15.40;;;10.95;;
10335;SDS011;5213;53.548;9.930;2023-08-24T04:39:44;17.83;;;11.50;;
10335;SDS011;5213;53.548;9.930;2023-08-24T04:42:09;18.45;;;11.23;;
10335;SDS011;5213;53.548;9.930;2023-08-24T04:44:35;19.20;;;11.02;;
10335;SDS011;5213;53.548;9.930;2023-08-24T04:47:01;12.73;;;10.63;;
10335;SDS011;5213;53.548;9.930;2023-08-24T04:49:26;14.98;;;10.60;;
10335;SDS011;5213;53.548;9.930;2023-08-24T04:51:53;13.68;;;10.63;;
10335;SDS011;5213;53.548;9.930;2023-08-24T04:54:19;17.90;;;11.10;;
10335;SDS011;5213;53.548;9.930;2023-08-24T04:56:44;14.98;;;11.43;;
10335;SDS011;5213;53.548;9.930;2023-08-24T04:59:10;15.13;;;10.85;;
10335;SDS011;5213;53.548;9.930;2023-08-24T05:01:36;15.60;;;10.30;;
10335;SDS011;5213;53.548;9.930;2023-08-24T05:04:02;15.20;;;9.23;;
10335;SDS011;5213;53.548;9.930;2023-08-24T05:06:27;15.25;;;9.10;;
10335;SDS011;5213;53.548;9.930;2023-08-24T05:08:53;10.35;;;8.15;;
10335;SDS011;5213;53.548;9.930;2023-08-24T05:11:20;11.32;;;8.93;;
10335;SDS011;5213;53.548;9.930;2023-08-24T05:13:49;11.02;;;8.35;;
10335;SDS011;5213;53.548;9.930;2023-08-24T05:16:15;13.18;;;8.80;;
10335;SDS011;5213;53.548;9.930;2023-08-24T05:18:40;11.73;;;8.55;;
10335;SDS011;5213;53.548;9.930;2023-08-24T05:21:06;10.43;;;7.75;;
10335;SDS011;5213;53.548;9.930;2023-08-24T05:23:32;11.23;;;7.82;;
10335;SDS011;5213;53.548;9.930;2023-08-24T05:25:58;9.18;;;7.50;;
10335;SDS011;5213;53.548;9.930;2023-08-24T05:28:25;8.73;;;7.10;;
10335;SDS011;5213;53.548;9.930;2023-08-24T05:30:55;8.35;;;6.78;;
10335;SDS011;5213;53.548;9.930;2023-08-24T05:33:21;11.13;;;7.70;;
10335;SDS011;5213;53.548;9.930;2023-08-24T05:35:51;11.55;;;7.20;;
10335;SDS011;5213;53.548;9.930;2023-08-24T05:38:16;9.23;;;6.95;;
10335;SDS011;5213;53.548;9.930;2023-08-24T05:40:42;10.80;;;6.45;;
10335;SDS011;5213;53.548;9.930;2023-08-24T05:43:09;8.77;;;6.03;;
10335;SDS011;5213;53.548;9.930;2023-08-24T05:45:35;8.00;;;6.35;;
10335;SDS011;5213;53.548;9.930;2023-08-24T05:48:01;9.50;;;6.03;;
10335;SDS011;5213;53.548;9.930;2023-08-24T05:50:27;8.07;;;5.88;;
10335;SDS011;5213;53.548;9.930;2023-08-24T05:52:53;7.85;;;3.95;;
10335;SDS011;5213;53.548;9.930;2023-08-24T05:55:18;5.95;;;3.88;;
10335;SDS011;5213;53.548;9.930;2023-08-24T05:57:44;4.97;;;4.30;;
10335;SDS011;5213;53.548;9.930;2023-08-24T06:00:10;6.93;;;3.83;;
10335;SDS011;5213;53.548;9.930;2023-08-24T06:02:36;4.80;;;3.78;;
10335;SDS011;5213;53.548;9.930;2023-08-24T06:05:02;7.25;;;4.75;;
10335;SDS011;5213;53.548;9.930;2023-08-24T06:07:28;5.28;;;3.90;;
10335;SDS011;5213;53.548;9.930;2023-08-24T06:09:54;5.05;;;3.95;;
10335;SDS011;5213;53.548;9.930;2023-08-24T06:12:21;7.57;;;4.20;;
10335;SDS011;5213;53.548;9.930;2023-08-24T06:14:47;6.80;;;4.65;;
10335;SDS011;5213;53.548;9.930;2023-08-24T06:17:12;5.70;;;3.97;;
10335;SDS011;5213;53.548;9.930;2023-08-24T06:19:38;7.15;;;4.28;;
10335;SDS011;5213;53.548;9.930;2023-08-24T06:22:03;7.32;;;4.20;;
10335;SDS011;5213;53.548;9.930;2023-08-24T06:24:29;8.27;;;3.80;;
10335;SDS011;5213;53.548;9.930;2023-08-24T06:26:55;4.70;;;3.35;;
10335;SDS011;5213;53.548;9.930;2023-08-24T06:29:21;3.58;;;3.25;;
10335;SDS011;5213;53.548;9.930;2023-08-24T06:31:47;5.43;;;3.30;;
10335;SDS011;5213;53.548;9.930;2023-08-24T06:34:13;4.40;;;3.67;;
10335;SDS011;5213;53.548;9.930;2023-08-24T06:36:39;4.13;;;3.72;;
10335;SDS011;5213;53.548;9.930;2023-08-24T06:39:05;5.43;;;4.00;;
10335;SDS011;5213;53.548;9.930;2023-08-24T06:41:35;5.55;;;3.63;;
10335;SDS011;5213;53.548;9.930;2023-08-24T06:44:01;5.90;;;4.22;;
10335;SDS011;5213;53.548;9.930;2023-08-24T06:46:27;6.85;;;3.70;;
10335;SDS011;5213;53.548;9.930;2023-08-24T06:48:53;6.18;;;4.00;;
10335;SDS011;5213;53.548;9.930;2023-08-24T06:51:19;5.35;;;3.65;;
10335;SDS011;5213;53.548;9.930;2023-08-24T06:53:45;4.50;;;3.70;;
10335;SDS011;5213;53.548;9.930;2023-08-24T06:56:14;6.97;;;3.60;;
10335;SDS011;5213;53.548;9.930;2023-08-24T06:58:40;6.53;;;3.15;;
10335;SDS011;5213;53.548;9.930;2023-08-24T07:01:07;4.05;;;3.60;;
10335;SDS011;5213;53.548;9.930;2023-08-24T07:03:33;4.22;;;3.42;;
10335;SDS011;5213;53.548;9.930;2023-08-24T07:05:59;5.18;;;3.30;;
10335;SDS011;5213;53.548;9.930;2023-08-24T07:08:24;6.47;;;3.60;;
10335;SDS011;5213;53.548;9.930;2023-08-24T07:10:50;4.75;;;3.50;;
10335;SDS011;5213;53.548;9.930;2023-08-24T07:13:16;5.88;;;4.22;;
10335;SDS011;5213;53.548;9.930;2023-08-24T07:15:42;7.43;;;4.13;;
10335;SDS011;5213;53.548;9.930;2023-08-24T07:18:10;3.97;;;3.50;;
10335;SDS011;5213;53.548;9.930;2023-08-24T07:20:36;5.03;;;3.88;;
10335;SDS011;5213;53.548;9.930;2023-08-24T07:23:03;6.13;;;3.70;;
10335;SDS011;5213;53.548;9.930;2023-08-24T07:25:29;3.95;;;3.55;;
10335;SDS011;5213;53.548;9.930;2023-08-24T07:27:55;8.60;;;3.53;;
10335;SDS011;5213;53.548;9.930;2023-08-24T07:30:24;5.47;;;3.75;;
10335;SDS011;5213;53.548;9.930;2023-08-24T07:32:50;9.38;;;4.03;;
10335;SDS011;5213;53.548;9.930;2023-08-24T07:35:16;5.70;;;4.10;;
10335;SDS011;5213;53.548;9.930;2023-08-24T07:37:42;4.60;;;3.90;;
10335;SDS011;5213;53.548;9.930;2023-08-24T07:40:08;5.20;;;3.38;;
10335;SDS011;5213;53.548;9.930;2023-08-24T07:42:44;9.90;;;3.95;;
10335;SDS011;5213;53.548;9.930;2023-08-24T07:45:11;6.93;;;4.10;;
10335;SDS011;5213;53.548;9.930;2023-08-24T07:47:37;6.55;;;4.13;;
10335;SDS011;5213;53.548;9.930;2023-08-24T07:50:03;6.50;;;4.07;;
10335;SDS011;5213;53.548;9.930;2023-08-24T07:52:29;5.60;;;3.65;;
10335;SDS011;5213;53.548;9.930;2023-08-24T07:54:55;6.85;;;3.75;;
10335;SDS011;5213;53.548;9.930;2023-08-24T07:57:24;5.55;;;4.03;;
10335;SDS011;5213;53.548;9.930;2023-08-24T07:59:51;7.20;;;4.07;;
10335;SDS011;5213;53.548;9.930;2023-08-24T08:02:17;7.22;;;3.67;;
10335;SDS011;5213;53.548;9.930;2023-08-24T08:04:43;5.60;;;3.47;;
10335;SDS011;5213;53.548;9.930;2023-08-24T08:10:09;6.72;;;3.55;;
10335;SDS011;5213;53.548;9.930;2023-08-24T08:12:35;5.15;;;3.72;;
10335;SDS011;5213;53.548;9.930;2023-08-24T08:15:01;5.03;;;3.90;;
10335;SDS011;5213;53.548;9.930;2023-08-24T08:17:27;6.63;;;3.83;;
10335;SDS011;5213;53.548;9.930;2023-08-24T08:19:55;6.80;;;3.50;;
10335;SDS011;5213;53.548;9.930;2023-08-24T08:22:21;7.55;;;4.00;;
10335;SDS011;5213;53.548;9.930;2023-08-24T08:24:46;7.05;;;3.70;;
10335;SDS011;5213;53.548;9.930;2023-08-24T08:27:12;7.15;;;3.92;;
10335;SDS011;5213;53.548;9.930;2023-08-24T08:29:38;5.28;;;3.42;;
10335;SDS011;5213;53.548;9.930;2023-08-24T08:32:04;4.90;;;3.40;;
10335;SDS011;5213;53.548;9.930;2023-08-24T08:34:30;5.50;;;3.85;;
10335;SDS011;5213;53.548;9.930;2023-08-24T08:36:56;6.30;;;3.80;;
10335;SDS011;5213;53.548;9.930;2023-08-24T08:39:22;7.15;;;3.90;;
10335;SDS011;5213;53.548;9.930;2023-08-24T08:41:48;4.72;;;3.50;;
10335;SDS011;5213;53.548;9.930;2023-08-24T08:44:14;8.10;;;3.85;;
10335;SDS011;5213;53.548;9.930;2023-08-24T08:46:41;7.38;;;3.15;;
10335;SDS011;5213;53.548;9.930;2023-08-24T08:49:07;6.75;;;3.83;;
10335;SDS011;5213;53.548;9.930;2023-08-24T08:51:35;5.22;;;2.95;;
10335;SDS011;5213;53.548;9.930;2023-08-24T08:54:01;11.45;;;3.60;;
10335;SDS011;5213;53.548;9.930;2023-08-24T08:56:28;4.13;;;2.63;;
10335;SDS011;5213;53.548;9.930;2023-08-24T08:58:55;5.50;;;3.15;;
10335;SDS011;5213;53.548;9.930;2023-08-24T09:01:24;3.45;;;2.88;;
10335;SDS011;5213;53.548;9.930;2023-08-24T09:03:50;6.15;;;2.60;;
10335;SDS011;5213;53.548;9.930;2023-08-24T09:06:16;3.28;;;2.55;;
10335;SDS011;5213;53.548;9.930;2023-08-24T09:08:42;7.75;;;2.47;;
10335;SDS011;5213;53.548;9.930;2023-08-24T09:11:08;4.75;;;2.60;;
10335;SDS011;5213;53.548;9.930;2023-08-24T09:13:34;3.97;;;2.50;;
10335;SDS011;5213;53.548;9.930;2023-08-24T09:16:03;5.28;;;2.08;;
10335;SDS011;5213;53.548;9.930;2023-08-24T09:18:38;2.58;;;2.00;;
10335;SDS011;5213;53.548;9.930;2023-08-24T09:21:12;4.20;;;2.30;;
10335;SDS011;5213;53.548;9.930;2023-08-24T09:23:44;4.03;;;2.30;;
10335;SDS011;5213;53.548;9.930;2023-08-24T09:26:29;4.57;;;2.40;;
10335;SDS011;5213;53.548;9.930;2023-08-24T09:28:56;6.97;;;2.30;;
10335;SDS011;5213;53.548;9.930;2023-08-24T09:31:22;2.85;;;2.35;;
10335;SDS011;5213;53.548;9.930;2023-08-24T09:34:00;4.38;;;2.38;;
10335;SDS011;5213;53.548;9.930;2023-08-24T09:36:26;5.13;;;2.60;;
10335;SDS011;5213;53.548;9.930;2023-08-24T09:38:51;4.70;;;2.60;;
10335;SDS011;5213;53.548;9.930;2023-08-24T09:41:17;2.88;;;2.60;;
10335;SDS011;5213;53.548;9.930;2023-08-24T09:43:43;5.05;;;2.67;;
10335;SDS011;5213;53.548;9.930;2023-08-24T09:46:08;3.63;;;2.60;;
10335;SDS011;5213;53.548;9.930;2023-08-24T09:48:34;2.63;;;2.28;;
10335;SDS011;5213;53.548;9.930;2023-08-24T09:51:00;2.42;;;2.15;;
10335;SDS011;5213;53.548;9.930;2023-08-24T09:53:29;2.83;;;2.53;;
10335;SDS011;5213;53.548;9.930;2023-08-24T09:56:01;6.47;;;2.92;;
10335;SDS011;5213;53.548;9.930;2023-08-24T09:58:28;3.35;;;2.50;;
10335;SDS011;5213;53.548;9.930;2023-08-24T10:00:54;4.28;;;2.55;;
10335;SDS011;5213;53.548;9.930;2023-08-24T10:03:21;3.58;;;2.50;;
10335;SDS011;5213;53.548;9.930;2023-08-24T10:05:53;5.20;;;2.70;;
10335;SDS011;5213;53.548;9.930;2023-08-24T10:08:21;3.60;;;2.70;;
10335;SDS011;5213;53.548;9.930;2023-08-24T10:10:50;4.22;;;2.45;;
10335;SDS011;5213;53.548;9.930;2023-08-24T10:13:20;5.50;;;3.20;;
10335;SDS011;5213;53.548;9.930;2023-08-24T10:16:00;4.97;;;2.55;;
10335;SDS011;5213;53.548;9.930;2023-08-24T10:18:28;5.05;;;3.10;;
10335;SDS011;5213;53.548;9.930;2023-08-24T10:20:53;3.70;;;3.22;;
10335;SDS011;5213;53.548;9.930;2023-08-24T10:23:21;4.80;;;2.90;;
10335;SDS011;5213;53.548;9.930;2023-08-24T10:25:47;4.65;;;3.10;;
10335;SDS011;5213;53.548;9.930;2023-08-24T10:28:17;3.42;;;3.00;;
10335;SDS011;5213;53.548;9.930;2023-08-24T10:30:44;5.65;;;2.85;;
10335;SDS011;5213;53.548;9.930;2023-08-24T10:33:13;7.20;;;3.53;;
10335;SDS011;5213;53.548;9.930;2023-08-24T10:35:39;4.43;;;3.00;;
10335;SDS011;5213;53.548;9.930;2023-08-24T10:38:06;4.93;;;3.40;;
10335;SDS011;5213;53.548;9.930;2023-08-24T10:40:32;4.25;;;3.33;;
10335;SDS011;5213;53.548;9.930;2023-08-24T10:43:02;5.95;;;3.45;;
10335;SDS011;5213;53.548;9.930;2023-08-24T10:45:53;5.90;;;3.22;;
10335;SDS011;5213;53.548;9.930;2023-08-24T10:48:22;7.82;;;3.25;;
10335;SDS011;5213;53.548;9.930;2023-08-24T10:53:40;5.93;;;2.78;;
10335;SDS011;5213;53.548;9.930;2023-08-24T10:56:12;5.28;;;3.17;;
10335;SDS011;5213;53.548;9.930;2023-08-24T10:58:40;4.18;;;2.97;;
10335;SDS011;5213;53.548;9.930;2023-08-24T11:01:06;8.50;;;3.28;;
10335;SDS011;5213;53.548;9.930;2023-08-24T11:03:32;6.10;;;3.08;;
10335;SDS011;5213;53.548;9.930;2023-08-24T11:05:58;4.18;;;3.75;;
10335;SDS011;5213;53.548;9.930;2023-08-24T11:11:22;4.28;;;3.30;;
10335;SDS011;5213;53.548;9.930;2023-08-24T11:16:50;5.40;;;3.40;;
10335;SDS011;5213;53.548;9.930;2023-08-24T11:19:16;5.97;;;3.60;;
10335;SDS011;5213;53.548;9.930;2023-08-24T11:21:43;5.88;;;3.33;;
10335;SDS011;5213;53.548;9.930;2023-08-24T11:24:12;6.95;;;3.10;;
10335;SDS011;5213;53.548;9.930;2023-08-24T11:26:42;5.70;;;2.90;;
10335;SDS011;5213;53.548;9.930;2023-08-24T11:29:09;5.50;;;3.25;;
10335;SDS011;5213;53.548;9.930;2023-08-24T11:31:35;4.43;;;3.30;;
10335;SDS011;5213;53.548;9.930;2023-08-24T11:34:02;4.80;;;3.03;;
10335;SDS011;5213;53.548;9.930;2023-08-24T11:36:29;5.60;;;3.05;;
10335;SDS011;5213;53.548;9.930;2023-08-24T11:39:19;3.45;;;2.85;;
10335;SDS011;5213;53.548;9.930;2023-08-24T11:42:03;6.97;;;3.00;;
10335;SDS011;5213;53.548;9.930;2023-08-24T11:44:30;5.97;;;3.30;;
10335;SDS011;5213;53.548;9.930;2023-08-24T11:47:13;4.75;;;2.85;;
10335;SDS011;5213;53.548;9.930;2023-08-24T11:49:38;3.50;;;3.20;;
10335;SDS011;5213;53.548;9.930;2023-08-24T11:52:04;4.25;;;3.33;;
10335;SDS011;5213;53.548;9.930;2023-08-24T11:54:33;4.68;;;3.22;;
10335;SDS011;5213;53.548;9.930;2023-08-24T11:57:05;3.65;;;2.80;;
10335;SDS011;5213;53.548;9.930;2023-08-24T11:59:31;5.43;;;2.95;;
10335;SDS011;5213;53.548;9.930;2023-08-24T12:01:57;3.58;;;3.22;;
10335;SDS011;5213;53.548;9.930;2023-08-24T12:04:23;4.88;;;3.65;;
10335;SDS011;5213;53.548;9.930;2023-08-24T12:06:49;7.03;;;3.15;;
10335;SDS011;5213;53.548;9.930;2023-08-24T12:09:15;3.53;;;3.22;;
10335;SDS011;5213;53.548;9.930;2023-08-24T12:11:41;8.48;;;3.40;;
10335;SDS011;5213;53.548;9.930;2023-08-24T12:14:07;5.43;;;3.10;;
10335;SDS011;5213;53.548;9.930;2023-08-24T12:16:35;4.10;;;3.33;;
10335;SDS011;5213;53.548;9.930;2023-08-24T12:19:00;8.00;;;2.97;;
10335;SDS011;5213;53.548;9.930;2023-08-24T12:21:29;4.32;;;3.60;;
10335;SDS011;5213;53.548;9.930;2023-08-24T12:26:21;5.40;;;3.22;;
10335;SDS011;5213;53.548;9.930;2023-08-24T12:28:53;4.35;;;3.45;;
10335;SDS011;5213;53.548;9.930;2023-08-24T12:31:20;5.45;;;3.55;;
10335;SDS011;5213;53.548;9.930;2023-08-24T12:36:30;8.05;;;3.22;;
10335;SDS011;5213;53.548;9.930;2023-08-24T12:39:01;3.53;;;2.72;;
10335;SDS011;5213;53.548;9.930;2023-08-24T12:41:28;3.78;;;2.90;;
10335;SDS011;5213;53.548;9.930;2023-08-24T12:43:54;3.67;;;3.15;;
10335;SDS011;5213;53.548;9.930;2023-08-24T12:46:19;5.78;;;2.85;;
10335;SDS011;5213;53.548;9.930;2023-08-24T12:48:45;8.10;;;3.28;;
10335;SDS011;5213;53.548;9.930;2023-08-24T12:51:11;5.47;;;3.20;;
10335;SDS011;5213;53.548;9.930;2023-08-24T12:53:37;3.50;;;3.05;;
10335;SDS011;5213;53.548;9.930;2023-08-24T12:56:02;4.45;;;2.95;;
10335;SDS011;5213;53.548;9.930;2023-08-24T12:58:28;4.18;;;2.92;;
10335;SDS011;5213;53.548;9.930;2023-08-24T13:00:54;5.60;;;2.85;;
10335;SDS011;5213;53.548;9.930;2023-08-24T13:03:20;3.67;;;2.88;;
10335;SDS011;5213;53.548;9.930;2023-08-24T13:05:45;3.53;;;2.53;;
10335;SDS011;5213;53.548;9.930;2023-08-24T13:08:12;4.60;;;2.60;;
10335;SDS011;5213;53.548;9.930;2023-08-24T13:10:38;6.30;;;2.80;;
10335;SDS011;5213;53.548;9.930;2023-08-24T13:13:04;4.60;;;2.70;;
10335;SDS011;5213;53.548;9.930;2023-08-24T13:15:29;4.15;;;2.70;;
10335;SDS011;5213;53.548;9.930;2023-08-24T13:17:55;4.40;;;2.50;;
10335;SDS011;5213;53.548;9.930;2023-08-24T13:20:22;4.47;;;2.78;;
10335;SDS011;5213;53.548;9.930;2023-08-24T13:22:48;4.03;;;2.70;;
10335;SDS011;5213;53.548;9.930;2023-08-24T13:25:13;4.05;;;2.67;;
10335;SDS011;5213;53.548;9.930;2023-08-24T13:27:39;5.72;;;3.10;;
10335;SDS011;5213;53.548;9.930;2023-08-24T13:30:05;3.38;;;2.60;;
10335;SDS011;5213;53.548;9.930;2023-08-24T13:32:31;3.95;;;2.53;;
10335;SDS011;5213;53.548;9.930;2023-08-24T13:34:57;2.97;;;2.60;;
10335;SDS011;5213;53.548;9.930;2023-08-24T13:37:23;4.68;;;2.40;;
10335;SDS011;5213;53.548;9.930;2023-08-24T13:39:49;2.88;;;2.38;;
10335;SDS011;5213;53.548;9.930;2023-08-24T13:42:15;3.55;;;2.50;;
10335;SDS011;5213;53.548;9.930;2023-08-24T13:44:41;2.63;;;2.35;;
10335;SDS011;5213;53.548;9.930;2023-08-24T13:47:07;9.10;;;2.50;;
10335;SDS011;5213;53.548;9.930;2023-08-24T13:49:33;3.63;;;2.40;;
10335;SDS011;5213;53.548;9.930;2023-08-24T13:51:58;4.60;;;2.58;;
10335;SDS011;5213;53.548;9.930;2023-08-24T13:54:25;2.97;;;2.30;;
10335;SDS011;5213;53.548;9.930;2023-08-24T13:56:51;2.90;;;2.70;;
10335;SDS011;5213;53.548;9.930;2023-08-24T13:59:19;2.70;;;2.50;;
10335;SDS011;5213;53.548;9.930;2023-08-24T14:01:45;3.05;;;2.42;;
10335;SDS011;5213;53.548;9.930;2023-08-24T14:04:10;3.85;;;2.75;;
10335;SDS011;5213;53.548;9.930;2023-08-24T14:06:36;5.18;;;2.55;;
10335;SDS011;5213;53.548;9.930;2023-08-24T14:09:02;3.15;;;2.17;;
10335;SDS011;5213;53.548;9.930;2023-08-24T14:11:29;3.72;;;2.50;;
10335;SDS011;5213;53.548;9.930;2023-08-24T14:13:55;3.67;;;2.67;;
10335;SDS011;5213;53.548;9.930;2023-08-24T14:16:22;3.83;;;2.65;;
10335;SDS011;5213;53.548;9.930;2023-08-24T14:18:47;3.83;;;2.53;;
10335;SDS011;5213;53.548;9.930;2023-08-24T14:21:13;3.92;;;2.88;;
10335;SDS011;5213;53.548;9.930;2023-08-24T14:23:40;5.28;;;2.60;;
10335;SDS011;5213;53.548;9.930;2023-08-24T14:26:05;4.45;;;2.58;;
10335;SDS011;5213;53.548;9.930;2023-08-24T14:28:50;6.82;;;2.45;;
10335;SDS011;5213;53.548;9.930;2023-08-24T14:31:24;7.85;;;2.67;;
10335;SDS011;5213;53.548;9.930;2023-08-24T14:33:51;6.82;;;3.05;;
10335;SDS011;5213;53.548;9.930;2023-08-24T14:36:17;5.85;;;2.80;;
10335;SDS011;5213;53.548;9.930;2023-08-24T14:38:43;7.00;;;3.03;;
10335;SDS011;5213;53.548;9.930;2023-08-24T14:41:10;9.10;;;2.90;;
10335;SDS011;5213;53.548;9.930;2023-08-24T14:43:36;3.85;;;2.42;;
10335;SDS011;5213;53.548;9.930;2023-08-24T14:46:02;4.28;;;2.38;;
10335;SDS011;5213;53.548;9.930;2023-08-24T14:48:28;5.72;;;2.40;;
10335;SDS011;5213;53.548;9.930;2023-08-24T14:50:55;5.05;;;2.42;;
10335;SDS011;5213;53.548;9.930;2023-08-24T14:53:21;6.00;;;2.55;;
10335;SDS011;5213;53.548;9.930;2023-08-24T14:55:48;4.10;;;2.80;;
10335;SDS011;5213;53.548;9.930;2023-08-24T14:58:13;5.32;;;2.80;;
10335;SDS011;5213;53.548;9.930;2023-08-24T15:00:39;4.63;;;2.50;;
10335;SDS011;5213;53.548;9.930;2023-08-24T15:03:05;2.65;;;2.13;;
10335;SDS011;5213;53.548;9.930;2023-08-24T15:05:30;2.92;;;2.50;;
10335;SDS011;5213;53.548;9.930;2023-08-24T15:07:56;5.50;;;2.72;;
10335;SDS011;5213;53.548;9.930;2023-08-24T15:10:21;3.97;;;2.58;;
10335;SDS011;5213;53.548;9.930;2023-08-24T15:12:47;6.57;;;2.72;;